sensor_id;sensor_type;location;lat;lon;timestamp;P1;durP1;ratioP1;P2;durP2;ratioP2
55794;SDS011;41716;51.910;4.430;2023-05-10T00:00:19;19.77;;;10.05;;
55794;SDS011;41716;51.910;4.430;2023-05-10T00:05:25;21.70;;;11.80;;
55794;SDS011;41716;51.910;4.430;2023-05-10T00:10:32;25.45;;;12.27;;
55794;SDS011;41716;51.910;4.430;2023-05-10T00:15:38;26.40;;;12.88;;
55794;SDS011;41716;51.910;4.430;2023-05-10T00:20:42;22.70;;;11.47;;
55794;SDS011;41716;51.910;4.430;2023-05-10T00:25:48;17.60;;;9.55;;
55794;SDS011;41716;51.910;4.430;2023-05-10T00:31:00;14.98;;;7.15;;
55794;SDS011;41716;51.910;4.430;2023-05-10T00:36:17;15.18;;;6.65;;
55794;SDS011;41716;51.910;4.430;2023-05-10T00:41:19;11.32;;;6.82;;
55794;SDS011;41716;51.910;4.430;2023-05-10T00:46:23;18.42;;;7.40;;
55794;SDS011;41716;51.910;4.430;2023-05-10T00:51:25;16.88;;;8.38;;
55794;SDS011;41716;51.910;4.430;2023-05-10T00:56:38;15.52;;;7.65;;
55794;SDS011;41716;51.910;4.430;2023-05-10T01:01:51;18.00;;;9.32;;
55794;SDS011;41716;51.910;4.430;2023-05-10T01:07:12;17.77;;;9.18;;
55794;SDS011;41716;51.910;4.430;2023-05-10T01:12:23;20.02;;;8.88;;
55794;SDS011;41716;51.910;4.430;2023-05-10T01:17:39;17.27;;;8.57;;
55794;SDS011;41716;51.910;4.430;2023-05-10T01:23:02;18.70;;;8.75;;
55794;SDS011;41716;51.910;4.430;2023-05-10T01:34:16;19.02;;;8.75;;
55794;SDS011;41716;51.910;4.430;2023-05-10T01:39:28;13.98;;;7.50;;
55794;SDS011;41716;51.910;4.430;2023-05-10T01:44:38;14.77;;;6.93;;
55794;SDS011;41716;51.910;4.430;2023-05-10T01:49:52;14.35;;;6.90;;
55794;SDS011;41716;51.910;4.430;2023-05-10T01:55:04;15.07;;;6.97;;
55794;SDS011;41716;51.910;4.430;2023-05-10T02:00:09;14.75;;;6.82;;
55794;SDS011;41716;51.910;4.430;2023-05-10T02:05:21;14.30;;;6.25;;
55794;SDS011;41716;51.910;4.430;2023-05-10T02:10:26;15.68;;;6.97;;
55794;SDS011;41716;51.910;4.430;2023-05-10T02:15:30;12.57;;;6.70;;
55794;SDS011;41716;51.910;4.430;2023-05-10T02:20:36;14.23;;;6.80;;
55794;SDS011;41716;51.910;4.430;2023-05-10T02:25:56;9.25;;;4.72;;
55794;SDS011;41716;51.910;4.430;2023-05-10T02:31:10;7.70;;;3.55;;
55794;SDS011;41716;51.910;4.430;2023-05-10T02:36:22;7.07;;;3.63;;
55794;SDS011;41716;51.910;4.430;2023-05-10T02:41:32;7.28;;;4.07;;
55794;SDS011;41716;51.910;4.430;2023-05-10T02:46:40;12.10;;;4.78;;
55794;SDS011;41716;51.910;4.430;2023-05-10T02:51:53;9.80;;;4.93;;
55794;SDS011;41716;51.910;4.430;2023-05-10T02:57:05;10.52;;;5.32;;
55794;SDS011;41716;51.910;4.430;2023-05-10T03:02:17;9.48;;;5.10;;
55794;SDS011;41716;51.910;4.430;2023-05-10T03:13:11;14.05;;;6.53;;
55794;SDS011;41716;51.910;4.430;2023-05-10T03:18:40;13.52;;;7.15;;
55794;SDS011;41716;51.910;4.430;2023-05-10T03:24:05;13.32;;;5.95;;
55794;SDS011;41716;51.910;4.430;2023-05-10T03:29:19;13.75;;;7.03;;
55794;SDS011;41716;51.910;4.430;2023-05-10T03:34:28;14.82;;;7.70;;
55794;SDS011;41716;51.910;4.430;2023-05-10T03:39:45;13.23;;;7.82;;
55794;SDS011;41716;51.910;4.430;2023-05-10T03:44:54;16.35;;;8.75;;
55794;SDS011;41716;51.910;4.430;2023-05-10T03:50:05;16.30;;;9.38;;
55794;SDS011;41716;51.910;4.430;2023-05-10T03:55:13;17.20;;;9.48;;
55794;SDS011;41716;51.910;4.430;2023-05-10T04:00:20;17.02;;;9.80;;
55794;SDS011;41716;51.910;4.430;2023-05-10T04:05:33;20.17;;;10.43;;
55794;SDS011;41716;51.910;4.430;2023-05-10T04:10:40;17.17;;;8.88;;
55794;SDS011;41716;51.910;4.430;2023-05-10T04:15:47;15.75;;;8.70;;
55794;SDS011;41716;51.910;4.430;2023-05-10T04:20:53;19.27;;;9.85;;
55794;SDS011;41716;51.910;4.430;2023-05-10T04:26:00;21.23;;;11.45;;
55794;SDS011;41716;51.910;4.430;2023-05-10T04:31:12;19.73;;;11.03;;
55794;SDS011;41716;51.910;4.430;2023-05-10T04:36:33;18.70;;;9.70;;
55794;SDS011;41716;51.910;4.430;2023-05-10T04:41:43;16.20;;;8.30;;
55794;SDS011;41716;51.910;4.430;2023-05-10T04:46:56;12.48;;;7.00;;
55794;SDS011;41716;51.910;4.430;2023-05-10T04:52:13;10.88;;;5.80;;
55794;SDS011;41716;51.910;4.430;2023-05-10T04:57:35;8.23;;;5.05;;
55794;SDS011;41716;51.910;4.430;2023-05-10T05:02:46;8.38;;;4.78;;
55794;SDS011;41716;51.910;4.430;2023-05-10T05:08:05;9.23;;;4.75;;
55794;SDS011;41716;51.910;4.430;2023-05-10T05:13:21;8.38;;;4.65;;
55794;SDS011;41716;51.910;4.430;2023-05-10T05:18:43;8.32;;;4.20;;
55794;SDS011;41716;51.910;4.430;2023-05-10T05:23:47;7.95;;;3.50;;
55794;SDS011;41716;51.910;4.430;2023-05-10T05:28:55;8.40;;;3.85;;
55794;SDS011;41716;51.910;4.430;2023-05-10T05:34:00;9.68;;;3.95;;
55794;SDS011;41716;51.910;4.430;2023-05-10T05:44:21;8.85;;;4.47;;
55794;SDS011;41716;51.910;4.430;2023-05-10T05:49:35;9.57;;;4.50;;
55794;SDS011;41716;51.910;4.430;2023-05-10T05:59:55;8.77;;;4.85;;
55794;SDS011;41716;51.910;4.430;2023-05-10T06:05:13;7.20;;;4.28;;
55794;SDS011;41716;51.910;4.430;2023-05-10T06:10:35;9.30;;;3.95;;
55794;SDS011;41716;51.910;4.430;2023-05-10T06:15:48;10.05;;;5.72;;
55794;SDS011;41716;51.910;4.430;2023-05-10T06:21:00;8.25;;;3.15;;
55794;SDS011;41716;51.910;4.430;2023-05-10T06:26:14;4.63;;;2.55;;
55794;SDS011;41716;51.910;4.430;2023-05-10T06:31:27;3.05;;;1.70;;
55794;SDS011;41716;51.910;4.430;2023-05-10T06:36:33;4.35;;;1.80;;
55794;SDS011;41716;51.910;4.430;2023-05-10T06:41:37;2.40;;;1.30;;
55794;SDS011;41716;51.910;4.430;2023-05-10T06:46:49;2.50;;;1.35;;
55794;SDS011;41716;51.910;4.430;2023-05-10T06:52:19;5.07;;;3.15;;
55794;SDS011;41716;51.910;4.430;2023-05-10T06:57:44;3.20;;;1.70;;
55794;SDS011;41716;51.910;4.430;2023-05-10T07:02:54;4.05;;;2.08;;
55794;SDS011;41716;51.910;4.430;2023-05-10T07:08:04;3.03;;;2.05;;
55794;SDS011;41716;51.910;4.430;2023-05-10T07:13:08;2.65;;;1.55;;
55794;SDS011;41716;51.910;4.430;2023-05-10T07:18:12;4.80;;;2.03;;
55794;SDS011;41716;51.910;4.430;2023-05-10T07:23:28;3.08;;;1.75;;
55794;SDS011;41716;51.910;4.430;2023-05-10T07:28:30;3.05;;;2.10;;
55794;SDS011;41716;51.910;4.430;2023-05-10T07:33:34;3.55;;;2.47;;
55794;SDS011;41716;51.910;4.430;2023-05-10T07:39:00;3.92;;;2.20;;
55794;SDS011;41716;51.910;4.430;2023-05-10T07:44:03;3.60;;;2.00;;
55794;SDS011;41716;51.910;4.430;2023-05-10T07:49:12;3.80;;;2.08;;
55794;SDS011;41716;51.910;4.430;2023-05-10T07:54:17;3.53;;;2.17;;
55794;SDS011;41716;51.910;4.430;2023-05-10T07:59:27;2.97;;;2.05;;
55794;SDS011;41716;51.910;4.430;2023-05-10T08:04:36;3.65;;;1.70;;
55794;SDS011;41716;51.910;4.430;2023-05-10T08:09:48;3.08;;;2.00;;
55794;SDS011;41716;51.910;4.430;2023-05-10T08:14:58;5.68;;;3.17;;
55794;SDS011;41716;51.910;4.430;2023-05-10T08:20:01;4.28;;;2.67;;
55794;SDS011;41716;51.910;4.430;2023-05-10T08:25:05;5.30;;;2.50;;
55794;SDS011;41716;51.910;4.430;2023-05-10T08:30:19;5.20;;;2.80;;
55794;SDS011;41716;51.910;4.430;2023-05-10T08:35:31;4.85;;;2.10;;
55794;SDS011;41716;51.910;4.430;2023-05-10T08:40:36;2.10;;;1.65;;
55794;SDS011;41716;51.910;4.430;2023-05-10T08:45:50;3.47;;;2.05;;
55794;SDS011;41716;51.910;4.430;2023-05-10T08:50:59;2.65;;;2.33;;
55794;SDS011;41716;51.910;4.430;2023-05-10T08:56:10;5.82;;;3.10;;
55794;SDS011;41716;51.910;4.430;2023-05-10T09:01:22;5.28;;;3.13;;
55794;SDS011;41716;51.910;4.430;2023-05-10T09:06:29;3.47;;;2.35;;
55794;SDS011;41716;51.910;4.430;2023-05-10T09:11:32;4.60;;;3.05;;
55794;SDS011;41716;51.910;4.430;2023-05-10T09:16:36;5.45;;;3.10;;
55794;SDS011;41716;51.910;4.430;2023-05-10T09:21:49;26.67;;;13.40;;
55794;SDS011;41716;51.910;4.430;2023-05-10T09:26:58;5.05;;;3.63;;
55794;SDS011;41716;51.910;4.430;2023-05-10T09:32:06;6.55;;;4.45;;
55794;SDS011;41716;51.910;4.430;2023-05-10T09:37:11;4.50;;;3.53;;
55794;SDS011;41716;51.910;4.430;2023-05-10T09:42:17;6.15;;;3.90;;
55794;SDS011;41716;51.910;4.430;2023-05-10T09:47:25;6.50;;;3.35;;
55794;SDS011;41716;51.910;4.430;2023-05-10T09:52:33;5.38;;;3.40;;
55794;SDS011;41716;51.910;4.430;2023-05-10T09:58:13;4.53;;;3.03;;
55794;SDS011;41716;51.910;4.430;2023-05-10T10:03:30;3.92;;;2.58;;
55794;SDS011;41716;51.910;4.430;2023-05-10T10:08:39;2.90;;;1.77;;
55794;SDS011;41716;51.910;4.430;2023-05-10T10:13:42;3.58;;;2.33;;
55794;SDS011;41716;51.910;4.430;2023-05-10T10:18:47;5.43;;;2.47;;
55794;SDS011;41716;51.910;4.430;2023-05-10T10:24:01;5.15;;;2.50;;
55794;SDS011;41716;51.910;4.430;2023-05-10T10:29:18;8.23;;;3.50;;
55794;SDS011;41716;51.910;4.430;2023-05-10T10:34:28;5.72;;;3.00;;
55794;SDS011;41716;51.910;4.430;2023-05-10T10:39:39;6.45;;;2.70;;
55794;SDS011;41716;51.910;4.430;2023-05-10T10:44:44;4.60;;;2.67;;
55794;SDS011;41716;51.910;4.430;2023-05-10T10:50:03;5.68;;;2.58;;
55794;SDS011;41716;51.910;4.430;2023-05-10T10:55:29;3.65;;;2.40;;
55794;SDS011;41716;51.910;4.430;2023-05-10T11:00:49;3.33;;;2.00;;
55794;SDS011;41716;51.910;4.430;2023-05-10T11:06:17;3.72;;;2.05;;
55794;SDS011;41716;51.910;4.430;2023-05-10T11:11:37;4.38;;;1.90;;
55794;SDS011;41716;51.910;4.430;2023-05-10T11:16:55;2.95;;;1.52;;
55794;SDS011;41716;51.910;4.430;2023-05-10T11:22:13;2.83;;;1.43;;
55794;SDS011;41716;51.910;4.430;2023-05-10T11:27:23;4.15;;;1.52;;
55794;SDS011;41716;51.910;4.430;2023-05-10T11:32:28;3.80;;;1.40;;
55794;SDS011;41716;51.910;4.430;2023-05-10T11:37:30;5.30;;;1.67;;
55794;SDS011;41716;51.910;4.430;2023-05-10T11:42:35;2.60;;;1.20;;
55794;SDS011;41716;51.910;4.430;2023-05-10T11:47:38;4.18;;;1.80;;
55794;SDS011;41716;51.910;4.430;2023-05-10T11:52:42;3.08;;;1.27;;
55794;SDS011;41716;51.910;4.430;2023-05-10T11:57:45;4.28;;;1.48;;
55794;SDS011;41716;51.910;4.430;2023-05-10T12:02:47;4.05;;;1.40;;
55794;SDS011;41716;51.910;4.430;2023-05-10T12:07:49;3.00;;;1.33;;
55794;SDS011;41716;51.910;4.430;2023-05-10T12:12:53;2.65;;;1.40;;
55794;SDS011;41716;51.910;4.430;2023-05-10T12:17:54;5.30;;;1.30;;
55794;SDS011;41716;51.910;4.430;2023-05-10T12:22:58;4.15;;;1.65;;
55794;SDS011;41716;51.910;4.430;2023-05-10T12:28:04;3.97;;;1.30;;
55794;SDS011;41716;51.910;4.430;2023-05-10T12:33:07;5.00;;;1.38;;
55794;SDS011;41716;51.910;4.430;2023-05-10T12:38:23;1.95;;;1.00;;
55794;SDS011;41716;51.910;4.430;2023-05-10T12:43:28;4.72;;;1.17;;
55794;SDS011;41716;51.910;4.430;2023-05-10T12:48:30;2.67;;;1.40;;
55794;SDS011;41716;51.910;4.430;2023-05-10T12:53:33;3.15;;;1.02;;
55794;SDS011;41716;51.910;4.430;2023-05-10T12:58:37;4.03;;;0.80;;
55794;SDS011;41716;51.910;4.430;2023-05-10T13:03:39;3.13;;;1.70;;
55794;SDS011;41716;51.910;4.430;2023-05-10T13:08:43;4.90;;;1.70;;
55794;SDS011;41716;51.910;4.430;2023-05-10T13:13:46;4.47;;;1.65;;
55794;SDS011;41716;51.910;4.430;2023-05-10T13:18:47;3.30;;;1.57;;
55794;SDS011;41716;51.910;4.430;2023-05-10T13:23:49;3.40;;;1.73;;
55794;SDS011;41716;51.910;4.430;2023-05-10T13:28:52;4.03;;;1.33;;
55794;SDS011;41716;51.910;4.430;2023-05-10T13:33:55;5.82;;;1.17;;
55794;SDS011;41716;51.910;4.430;2023-05-10T13:38:57;3.22;;;1.25;;
55794;SDS011;41716;51.910;4.430;2023-05-10T13:44:00;3.78;;;0.95;;
55794;SDS011;41716;51.910;4.430;2023-05-10T13:49:01;3.87;;;1.00;;
55794;SDS011;41716;51.910;4.430;2023-05-10T13:54:03;3.33;;;0.80;;
55794;SDS011;41716;51.910;4.430;2023-05-10T13:59:06;1.73;;;1.10;;
55794;SDS011;41716;51.910;4.430;2023-05-10T14:04:08;2.63;;;1.50;;
55794;SDS011;41716;51.910;4.430;2023-05-10T14:09:11;2.03;;;1.13;;
55794;SDS011;41716;51.910;4.430;2023-05-10T14:14:14;3.00;;;1.60;;
55794;SDS011;41716;51.910;4.430;2023-05-10T14:19:16;2.67;;;1.70;;
55794;SDS011;41716;51.910;4.430;2023-05-10T14:24:18;4.60;;;2.38;;
55794;SDS011;41716;51.910;4.430;2023-05-10T14:29:21;4.10;;;2.60;;
55794;SDS011;41716;51.910;4.430;2023-05-10T14:34:23;6.22;;;2.97;;
55794;SDS011;41716;51.910;4.430;2023-05-10T14:39:25;5.03;;;2.58;;
55794;SDS011;41716;51.910;4.430;2023-05-10T14:44:30;4.78;;;2.38;;
55794;SDS011;41716;51.910;4.430;2023-05-10T14:49:32;6.10;;;2.07;;
55794;SDS011;41716;51.910;4.430;2023-05-10T14:54:34;5.22;;;2.53;;
55794;SDS011;41716;51.910;4.430;2023-05-10T14:59:37;3.67;;;2.30;;
55794;SDS011;41716;51.910;4.430;2023-05-10T15:04:39;4.43;;;2.60;;
55794;SDS011;41716;51.910;4.430;2023-05-10T15:09:40;4.35;;;2.28;;
55794;SDS011;41716;51.910;4.430;2023-05-10T15:14:44;4.07;;;2.00;;
55794;SDS011;41716;51.910;4.430;2023-05-10T15:19:45;4.17;;;1.90;;
55794;SDS011;41716;51.910;4.430;2023-05-10T15:24:49;2.47;;;1.40;;
55794;SDS011;41716;51.910;4.430;2023-05-10T15:29:52;3.65;;;1.80;;
55794;SDS011;41716;51.910;4.430;2023-05-10T15:34:53;3.27;;;1.57;;
55794;SDS011;41716;51.910;4.430;2023-05-10T15:39:56;2.38;;;0.93;;
55794;SDS011;41716;51.910;4.430;2023-05-10T15:45:04;2.13;;;1.38;;
55794;SDS011;41716;51.910;4.430;2023-05-10T15:50:07;1.73;;;1.33;;
55794;SDS011;41716;51.910;4.430;2023-05-10T15:55:10;1.73;;;1.13;;
55794;SDS011;41716;51.910;4.430;2023-05-10T16:00:14;2.40;;;1.50;;
55794;SDS011;41716;51.910;4.430;2023-05-10T16:05:17;2.33;;;1.42;;
55794;SDS011;41716;51.910;4.430;2023-05-10T16:10:19;2.53;;;1.50;;
55794;SDS011;41716;51.910;4.430;2023-05-10T16:15:22;3.47;;;1.33;;
55794;SDS011;41716;51.910;4.430;2023-05-10T16:20:24;1.27;;;0.80;;
55794;SDS011;41716;51.910;4.430;2023-05-10T16:25:26;1.42;;;0.93;;
55794;SDS011;41716;51.910;4.430;2023-05-10T16:30:29;1.45;;;0.90;;
55794;SDS011;41716;51.910;4.430;2023-05-10T16:35:31;1.40;;;0.73;;
55794;SDS011;41716;51.910;4.430;2023-05-10T16:40:33;3.03;;;0.90;;
55794;SDS011;41716;51.910;4.430;2023-05-10T16:45:36;2.63;;;1.45;;
55794;SDS011;41716;51.910;4.430;2023-05-10T16:50:41;2.30;;;1.17;;
55794;SDS011;41716;51.910;4.430;2023-05-10T16:55:43;2.35;;;1.48;;
55794;SDS011;41716;51.910;4.430;2023-05-10T17:00:46;2.60;;;1.42;;
55794;SDS011;41716;51.910;4.430;2023-05-10T17:05:48;3.57;;;1.90;;
55794;SDS011;41716;51.910;4.430;2023-05-10T17:10:50;5.07;;;2.38;;
55794;SDS011;41716;51.910;4.430;2023-05-10T17:15:53;5.80;;;3.00;;
55794;SDS011;41716;51.910;4.430;2023-05-10T17:20:55;4.70;;;2.70;;
55794;SDS011;41716;51.910;4.430;2023-05-10T17:25:57;6.80;;;3.63;;
55794;SDS011;41716;51.910;4.430;2023-05-10T17:31:00;7.57;;;3.15;;
55794;SDS011;41716;51.910;4.430;2023-05-10T17:36:02;7.22;;;3.70;;
55794;SDS011;41716;51.910;4.430;2023-05-10T17:41:04;6.28;;;3.55;;
55794;SDS011;41716;51.910;4.430;2023-05-10T17:46:07;6.63;;;3.40;;
55794;SDS011;41716;51.910;4.430;2023-05-10T17:51:09;6.37;;;3.97;;
55794;SDS011;41716;51.910;4.430;2023-05-10T17:56:11;7.72;;;3.65;;
55794;SDS011;41716;51.910;4.430;2023-05-10T18:01:14;6.30;;;3.80;;
55794;SDS011;41716;51.910;4.430;2023-05-10T18:06:16;7.05;;;3.75;;
55794;SDS011;41716;51.910;4.430;2023-05-10T18:11:18;7.03;;;3.90;;
55794;SDS011;41716;51.910;4.430;2023-05-10T18:16:22;6.78;;;3.95;;
55794;SDS011;41716;51.910;4.430;2023-05-10T18:21:23;10.77;;;4.60;;
55794;SDS011;41716;51.910;4.430;2023-05-10T18:26:25;7.45;;;3.72;;
55794;SDS011;41716;51.910;4.430;2023-05-10T18:31:28;6.22;;;3.30;;
55794;SDS011;41716;51.910;4.430;2023-05-10T18:36:30;5.50;;;3.07;;
55794;SDS011;41716;51.910;4.430;2023-05-10T18:41:32;4.35;;;2.72;;
55794;SDS011;41716;51.910;4.430;2023-05-10T18:46:35;5.65;;;3.00;;
55794;SDS011;41716;51.910;4.430;2023-05-10T18:51:37;4.80;;;2.83;;
55794;SDS011;41716;51.910;4.430;2023-05-10T18:56:39;5.80;;;3.22;;
55794;SDS011;41716;51.910;4.430;2023-05-10T19:01:45;4.85;;;2.42;;
55794;SDS011;41716;51.910;4.430;2023-05-10T19:06:47;8.30;;;3.30;;
55794;SDS011;41716;51.910;4.430;2023-05-10T19:11:49;18.88;;;13.48;;
55794;SDS011;41716;51.910;4.430;2023-05-10T19:16:52;3.85;;;1.95;;
55794;SDS011;41716;51.910;4.430;2023-05-10T19:21:54;3.78;;;2.22;;
55794;SDS011;41716;51.910;4.430;2023-05-10T19:26:56;3.55;;;1.85;;
55794;SDS011;41716;51.910;4.430;2023-05-10T19:31:59;3.33;;;1.98;;
55794;SDS011;41716;51.910;4.430;2023-05-10T19:37:01;5.40;;;2.23;;
55794;SDS011;41716;51.910;4.430;2023-05-10T19:42:03;3.75;;;2.20;;
55794;SDS011;41716;51.910;4.430;2023-05-10T19:47:07;2.65;;;1.60;;
55794;SDS011;41716;51.910;4.430;2023-05-10T19:52:08;4.37;;;2.57;;
55794;SDS011;41716;51.910;4.430;2023-05-10T19:57:11;2.58;;;1.48;;
55794;SDS011;41716;51.910;4.430;2023-05-10T20:02:14;2.05;;;1.00;;
55794;SDS011;41716;51.910;4.430;2023-05-10T20:07:15;2.63;;;1.43;;
55794;SDS011;41716;51.910;4.430;2023-05-10T20:12:17;2.10;;;1.35;;
55794;SDS011;41716;51.910;4.430;2023-05-10T20:17:20;2.05;;;1.30;;
55794;SDS011;41716;51.910;4.430;2023-05-10T20:22:22;2.10;;;1.30;;
55794;SDS011;41716;51.910;4.430;2023-05-10T20:27:24;2.28;;;1.50;;
55794;SDS011;41716;51.910;4.430;2023-05-10T20:32:27;2.42;;;1.10;;
55794;SDS011;41716;51.910;4.430;2023-05-10T20:37:29;2.30;;;1.27;;
55794;SDS011;41716;51.910;4.430;2023-05-10T20:42:30;2.38;;;1.40;;
55794;SDS011;41716;51.910;4.430;2023-05-10T20:47:33;2.92;;;1.40;;
55794;SDS011;41716;51.910;4.430;2023-05-10T20:52:36;3.10;;;1.58;;
55794;SDS011;41716;51.910;4.430;2023-05-10T20:57:37;2.70;;;1.73;;
55794;SDS011;41716;51.910;4.430;2023-05-10T21:02:43;3.47;;;2.05;;
55794;SDS011;41716;51.910;4.430;2023-05-10T21:07:45;6.30;;;2.10;;
55794;SDS011;41716;51.910;4.430;2023-05-10T21:12:48;3.45;;;2.15;;
55794;SDS011;41716;51.910;4.430;2023-05-10T21:17:51;3.45;;;1.92;;
55794;SDS011;41716;51.910;4.430;2023-05-10T21:22:53;2.63;;;1.87;;
55794;SDS011;41716;51.910;4.430;2023-05-10T21:27:54;3.30;;;1.95;;
55794;SDS011;41716;51.910;4.430;2023-05-10T21:32:57;3.78;;;2.25;;
55794;SDS011;41716;51.910;4.430;2023-05-10T21:38:00;2.80;;;1.92;;
55794;SDS011;41716;51.910;4.430;2023-05-10T21:43:02;4.32;;;2.38;;
55794;SDS011;41716;51.910;4.430;2023-05-10T21:48:05;6.15;;;2.55;;
55794;SDS011;41716;51.910;4.430;2023-05-10T21:53:07;3.40;;;1.93;;
55794;SDS011;41716;51.910;4.430;2023-05-10T21:58:09;3.03;;;1.65;;
55794;SDS011;41716;51.910;4.430;2023-05-10T22:03:12;3.70;;;1.98;;
55794;SDS011;41716;51.910;4.430;2023-05-10T22:08:14;5.17;;;2.53;;
55794;SDS011;41716;51.910;4.430;2023-05-10T22:13:15;4.50;;;2.60;;
55794;SDS011;41716;51.910;4.430;2023-05-10T22:18:19;4.85;;;2.70;;
55794;SDS011;41716;51.910;4.430;2023-05-10T22:23:20;4.57;;;2.87;;
55794;SDS011;41716;51.910;4.430;2023-05-10T22:28:22;3.88;;;2.75;;
55794;SDS011;41716;51.910;4.430;2023-05-10T22:33:25;4.47;;;2.78;;
55794;SDS011;41716;51.910;4.430;2023-05-10T22:38:27;6.37;;;3.63;;
55794;SDS011;41716;51.910;4.430;2023-05-10T22:43:29;5.57;;;3.53;;
55794;SDS011;41716;51.910;4.430;2023-05-10T22:48:33;5.75;;;3.53;;
55794;SDS011;41716;51.910;4.430;2023-05-10T22:53:35;4.75;;;3.22;;
55794;SDS011;41716;51.910;4.430;2023-05-10T22:58:37;5.95;;;3.10;;
55794;SDS011;41716;51.910;4.430;2023-05-10T23:03:40;4.53;;;3.22;;
55794;SDS011;41716;51.910;4.430;2023-05-10T23:08:42;4.40;;;3.37;;
55794;SDS011;41716;51.910;4.430;2023-05-10T23:13:44;5.43;;;3.70;;
55794;SDS011;41716;51.910;4.430;2023-05-10T23:18:47;5.88;;;3.50;;
55794;SDS011;41716;51.910;4.430;2023-05-10T23:23:48;5.20;;;3.40;;
55794;SDS011;41716;51.910;4.430;2023-05-10T23:28:50;6.60;;;3.60;;
55794;SDS011;41716;51.910;4.430;2023-05-10T23:33:53;8.95;;;4.22;;
55794;SDS011;41716;51.910;4.430;2023-05-10T23:38:55;6.53;;;4.07;;
55794;SDS011;41716;51.910;4.430;2023-05-10T23:43:57;6.70;;;3.70;;
55794;SDS011;41716;51.910;4.430;2023-05-10T23:49:00;5.75;;;3.40;;
55794;SDS011;41716;51.910;4.430;2023-05-10T23:54:02;6.17;;;2.97;;
55794;SDS011;41716;51.910;4.430;2023-05-10T23:59:03;5.32;;;3.30;;
